Time;durP1;ratioP1;P1;durP2;ratioP2;P2;SDS_P1;SDS_P2;PMS_P1;PMS_P2;Temp;Humidity;BMP_temperature;BMP_pressure;BME280_temperature;BME280_humidity;BME280_pressure;Samples;Min_cycle;Max_cycle;Signal;HPM_P1;HPM_P2
2023/05/27 00:00:06;;;;;;;1.90;1.10;;;;;;;;;;5033695;28;20380;-77
2023/05/27 00:02:32;;;;;;;1.48;1.10;;;;;;;;;;5039106;28;20025;-79
2023/05/27 00:04:58;;;;;;;1.40;1.20;;;;;;;;;;5046099;28;20045;-79
2023/05/27 00:07:24;;;;;;;2.60;1.10;;;;;;;;;;5035673;28;20489;-79
2023/05/27 00:09:50;;;;;;;4.45;1.33;;;;;;;;;;5047502;28;20083;-80
2023/05/27 00:12:16;;;;;;;2.47;1.48;;;;;;;;;;5034544;28;20029;-79
2023/05/27 00:14:42;;;;;;;2.20;1.52;;;;;;;;;;5036451;28;20090;-77
2023/05/27 00:17:14;;;;;;;1.80;1.05;;;;;;;;;;5034727;28;20116;-79
2023/05/27 00:19:41;;;;;;;2.50;1.52;;;;;;;;;;5032178;28;20017;-79
2023/05/27 00:22:07;;;;;;;2.28;1.50;;;;;;;;;;5039415;28;20502;-79
2023/05/27 00:24:39;;;;;;;3.15;1.23;;;;;;;;;;5038987;28;20029;-79
2023/05/27 00:27:05;;;;;;;2.58;1.48;;;;;;;;;;5040349;28;20025;-79
2023/05/27 00:29:31;;;;;;;2.55;1.40;;;;;;;;;;5030104;28;20025;-79
2023/05/27 00:31:57;;;;;;;1.30;1.00;;;;;;;;;;5040600;28;20037;-80
2023/05/27 00:34:23;;;;;;;4.53;1.15;;;;;;;;;;5041239;28;20036;-79
2023/05/27 00:36:51;;;;;;;2.15;1.20;;;;;;;;;;5044222;28;20032;-77
2023/05/27 00:39:17;;;;;;;1.58;0.90;;;;;;;;;;5042123;28;20043;-79
2023/05/27 00:41:46;;;;;;;1.33;0.90;;;;;;;;;;5037352;28;20017;-79
2023/05/27 00:44:12;;;;;;;1.20;0.90;;;;;;;;;;5039802;28;20040;-79
2023/05/27 00:46:38;;;;;;;2.05;1.08;;;;;;;;;;5038518;28;20025;-79
2023/05/27 00:49:04;;;;;;;2.80;1.38;;;;;;;;;;5044838;28;20099;-79
2023/05/27 00:51:31;;;;;;;1.80;1.10;;;;;;;;;;5039445;28;20033;-79
2023/05/27 00:53:57;;;;;;;4.82;1.20;;;;;;;;;;5033615;28;20044;-79
2023/05/27 00:56:25;;;;;;;1.83;0.98;;;;;;;;;;5037321;28;20037;-79
2023/05/27 00:58:51;;;;;;;2.42;1.05;;;;;;;;;;5033339;28;20499;-79
2023/05/27 01:01:19;;;;;;;2.15;0.90;;;;;;;;;;5041495;28;20476;-79
2023/05/27 01:03:45;;;;;;;2.22;1.33;;;;;;;;;;5029073;28;20029;-79
2023/05/27 01:06:20;;;;;;;1.80;1.15;;;;;;;;;;5038257;28;20033;-79
2023/05/27 01:08:52;;;;;;;1.67;1.30;;;;;;;;;;5037234;28;20029;-79
2023/05/27 01:11:23;;;;;;;2.83;1.00;;;;;;;;;;5042026;28;20662;-79
2023/05/27 01:13:52;;;;;;;7.15;1.55;;;;;;;;;;5031036;28;20514;-79
2023/05/27 01:16:18;;;;;;;1.52;0.73;;;;;;;;;;5038385;28;20039;-79
2023/05/27 01:18:46;;;;;;;1.48;1.17;;;;;;;;;;5041373;28;20080;-79
2023/05/27 01:21:13;;;;;;;1.25;1.02;;;;;;;;;;5038865;28;20044;-79
2023/05/27 01:23:39;;;;;;;1.30;0.80;;;;;;;;;;5037109;28;20020;-79
2023/05/27 01:26:05;;;;;;;2.60;1.45;;;;;;;;;;5037895;28;20033;-79
2023/05/27 01:28:31;;;;;;;1.70;1.13;;;;;;;;;;5041223;28;20048;-79
2023/05/27 01:31:15;;;;;;;2.00;1.10;;;;;;;;;;5038507;28;20458;-79
2023/05/27 01:33:43;;;;;;;0.82;0.82;;;;;;;;;;5045823;28;20031;-79
2023/05/27 01:36:12;;;;;;;2.08;1.30;;;;;;;;;;5045315;28;20127;-79
2023/05/27 01:38:41;;;;;;;1.73;1.20;;;;;;;;;;5048100;28;20316;-79
2023/05/27 01:41:07;;;;;;;1.65;1.30;;;;;;;;;;5046357;28;20090;-79
2023/05/27 01:43:33;;;;;;;3.60;0.88;;;;;;;;;;5046542;28;20025;-79
2023/05/27 01:45:59;;;;;;;1.70;1.20;;;;;;;;;;5046544;28;20032;-79
2023/05/27 01:48:25;;;;;;;1.85;0.93;;;;;;;;;;5044947;28;20674;-79
2023/05/27 01:50:51;;;;;;;1.23;1.00;;;;;;;;;;5037839;28;20030;-79
2023/05/27 01:53:17;;;;;;;1.60;0.95;;;;;;;;;;5044137;28;20025;-79
2023/05/27 01:55:43;;;;;;;1.10;0.82;;;;;;;;;;5039544;28;20041;-79
2023/05/27 01:58:09;;;;;;;1.25;1.15;;;;;;;;;;5049998;28;20385;-79
2023/05/27 02:00:35;;;;;;;2.63;1.05;;;;;;;;;;5048116;28;20502;-79
2023/05/27 02:03:01;;;;;;;1.50;1.10;;;;;;;;;;5049613;28;20442;-79
2023/05/27 02:05:27;;;;;;;1.70;1.23;;;;;;;;;;5050431;28;20123;-79
2023/05/27 02:07:53;;;;;;;1.65;0.80;;;;;;;;;;5049198;28;20044;-79
2023/05/27 02:10:19;;;;;;;1.85;1.05;;;;;;;;;;5046872;28;20032;-79
2023/05/27 02:12:45;;;;;;;1.58;1.08;;;;;;;;;;5043514;28;20025;-79
2023/05/27 02:15:11;;;;;;;1.45;1.00;;;;;;;;;;5048267;28;20035;-79
2023/05/27 02:17:37;;;;;;;0.65;0.65;;;;;;;;;;5041460;28;20061;-79
2023/05/27 02:20:03;;;;;;;1.65;1.02;;;;;;;;;;5044740;28;20027;-79
2023/05/27 02:22:29;;;;;;;1.73;0.90;;;;;;;;;;5036038;28;20017;-79
2023/05/27 02:24:55;;;;;;;1.60;0.80;;;;;;;;;;5044801;28;20025;-79
2023/05/27 02:27:21;;;;;;;1.92;1.05;;;;;;;;;;5040778;28;20057;-79
2023/05/27 02:29:47;;;;;;;1.38;1.10;;;;;;;;;;5045975;28;20507;-79
2023/05/27 02:32:13;;;;;;;2.05;1.00;;;;;;;;;;5032824;28;20040;-79
2023/05/27 02:34:40;;;;;;;1.25;0.90;;;;;;;;;;5043508;28;20119;-79
2023/05/27 02:37:07;;;;;;;1.80;1.10;;;;;;;;;;5039249;28;20021;-79
2023/05/27 02:39:33;;;;;;;0.95;0.73;;;;;;;;;;5044888;28;20512;-79
2023/05/27 02:41:59;;;;;;;1.10;0.98;;;;;;;;;;5036313;28;20318;-79
2023/05/27 02:44:25;;;;;;;2.15;1.05;;;;;;;;;;5042887;28;20120;-79
2023/05/27 02:46:51;;;;;;;1.23;0.90;;;;;;;;;;5043366;28;20025;-79
2023/05/27 02:49:18;;;;;;;1.13;1.00;;;;;;;;;;5047119;28;20041;-79
2023/05/27 02:51:44;;;;;;;1.20;0.82;;;;;;;;;;5043638;28;20138;-80
2023/05/27 02:54:10;;;;;;;1.90;0.82;;;;;;;;;;5035404;28;20103;-79
2023/05/27 02:56:38;;;;;;;0.75;0.75;;;;;;;;;;5042687;28;20036;-79
2023/05/27 02:59:04;;;;;;;1.05;0.90;;;;;;;;;;5041981;28;20025;-79
2023/05/27 03:01:30;;;;;;;1.15;0.70;;;;;;;;;;5043672;28;20028;-79
2023/05/27 03:03:56;;;;;;;1.60;0.90;;;;;;;;;;5037226;28;20045;-79
2023/05/27 03:06:22;;;;;;;1.02;0.93;;;;;;;;;;5042862;28;20033;-79
2023/05/27 03:08:48;;;;;;;1.30;0.93;;;;;;;;;;5047018;28;20044;-79
2023/05/27 03:11:14;;;;;;;1.95;0.90;;;;;;;;;;5035023;28;20054;-78
2023/05/27 03:13:40;;;;;;;0.95;0.65;;;;;;;;;;5035046;28;20116;-79
2023/05/27 03:16:06;;;;;;;1.88;0.75;;;;;;;;;;5039693;28;20106;-79
2023/05/27 03:18:32;;;;;;;2.70;0.98;;;;;;;;;;5042132;28;20029;-79
2023/05/27 03:20:58;;;;;;;1.63;1.33;;;;;;;;;;5034181;28;20036;-79
2023/05/27 03:23:24;;;;;;;1.70;0.70;;;;;;;;;;5035093;28;20091;-79
2023/05/27 03:25:50;;;;;;;1.05;0.98;;;;;;;;;;5043182;28;20036;-79
2023/05/27 03:28:16;;;;;;;1.60;0.70;;;;;;;;;;5035558;28;20074;-79
2023/05/27 03:30:43;;;;;;;1.50;1.02;;;;;;;;;;5044101;28;20025;-79
2023/05/27 03:33:09;;;;;;;1.20;1.00;;;;;;;;;;5035350;28;20027;-79
2023/05/27 03:35:35;;;;;;;1.42;0.95;;;;;;;;;;5037855;28;20025;-79
2023/05/27 03:38:01;;;;;;;3.08;0.95;;;;;;;;;;5037261;28;20021;-78
2023/05/27 03:40:27;;;;;;;1.85;0.95;;;;;;;;;;5047070;28;20037;-79
2023/05/27 03:42:54;;;;;;;0.70;0.63;;;;;;;;;;5035789;28;20170;-79
2023/05/27 03:45:20;;;;;;;1.25;0.80;;;;;;;;;;5036921;28;20045;-79
2023/05/27 03:47:46;;;;;;;1.85;1.00;;;;;;;;;;5043165;28;20403;-79
2023/05/27 03:50:12;;;;;;;1.52;0.95;;;;;;;;;;5045947;28;20548;-79
2023/05/27 03:52:38;;;;;;;1.00;0.75;;;;;;;;;;5036466;28;20025;-79
2023/05/27 03:55:04;;;;;;;3.63;2.17;;;;;;;;;;5045345;28;20025;-79
2023/05/27 03:57:30;;;;;;;1.77;1.00;;;;;;;;;;5033733;28;20033;-79
2023/05/27 03:59:56;;;;;;;1.17;0.98;;;;;;;;;;5039344;28;20029;-79
2023/05/27 04:02:22;;;;;;;1.95;1.10;;;;;;;;;;5040658;28;20396;-79
2023/05/27 04:04:48;;;;;;;1.30;0.80;;;;;;;;;;5046947;28;20763;-79
2023/05/27 04:07:14;;;;;;;1.33;1.00;;;;;;;;;;5054662;28;20021;-79
2023/05/27 04:09:40;;;;;;;1.00;0.88;;;;;;;;;;5036622;28;20448;-79
2023/05/27 04:12:07;;;;;;;1.60;0.95;;;;;;;;;;5043150;28;20037;-79
2023/05/27 04:14:33;;;;;;;1.38;0.95;;;;;;;;;;5031748;28;20059;-79
2023/05/27 04:16:59;;;;;;;2.03;0.70;;;;;;;;;;5042714;28;20037;-79
2023/05/27 04:19:25;;;;;;;0.73;0.73;;;;;;;;;;5036268;28;20057;-79
2023/05/27 04:21:51;;;;;;;0.88;0.70;;;;;;;;;;5042838;28;20021;-79
2023/05/27 04:24:17;;;;;;;0.85;0.80;;;;;;;;;;5033572;28;20030;-79
2023/05/27 04:26:43;;;;;;;2.83;0.90;;;;;;;;;;5035891;28;20116;-79
2023/05/27 04:29:11;;;;;;;2.17;1.10;;;;;;;;;;5044196;28;20025;-79
2023/05/27 04:31:37;;;;;;;1.23;0.90;;;;;;;;;;5032611;28;20033;-79
2023/05/27 04:34:03;;;;;;;0.98;0.68;;;;;;;;;;5036455;28;20071;-79
2023/05/27 04:36:33;;;;;;;1.98;1.10;;;;;;;;;;5035931;28;20633;-79
2023/05/27 04:39:04;;;;;;;0.50;0.50;;;;;;;;;;5035284;28;20483;-79
2023/05/27 04:41:32;;;;;;;1.98;0.73;;;;;;;;;;5040936;28;20123;-79
2023/05/27 04:44:00;;;;;;;1.05;0.90;;;;;;;;;;5035935;28;20108;-78
2023/05/27 04:46:26;;;;;;;1.50;1.00;;;;;;;;;;5035968;28;20487;-79
2023/05/27 04:48:55;;;;;;;1.73;0.82;;;;;;;;;;5040009;28;20029;-79
2023/05/27 04:51:22;;;;;;;2.03;1.00;;;;;;;;;;5037152;28;20044;-79
2023/05/27 04:53:48;;;;;;;1.90;0.90;;;;;;;;;;5038376;28;20364;-79
2023/05/27 04:56:16;;;;;;;1.45;0.90;;;;;;;;;;5039938;28;20035;-79
2023/05/27 04:58:43;;;;;;;0.60;0.60;;;;;;;;;;5036350;28;20031;-79
2023/05/27 05:01:17;;;;;;;0.65;0.65;;;;;;;;;;5041404;28;20026;-79
2023/05/27 05:04:02;;;;;;;0.77;0.77;;;;;;;;;;5030212;28;20045;-79
2023/05/27 05:06:28;;;;;;;2.08;0.70;;;;;;;;;;5044583;28;20546;-79
2023/05/27 05:08:54;;;;;;;1.42;0.77;;;;;;;;;;5035422;28;20021;-79
2023/05/27 05:11:20;;;;;;;4.10;0.70;;;;;;;;;;5034816;28;20025;-79
2023/05/27 05:13:46;;;;;;;1.00;0.82;;;;;;;;;;5039392;28;20026;-79
2023/05/27 05:16:12;;;;;;;1.42;0.90;;;;;;;;;;5032090;28;20039;-78
2023/05/27 05:18:38;;;;;;;3.38;0.98;;;;;;;;;;5037952;28;20400;-79
2023/05/27 05:21:04;;;;;;;2.78;0.90;;;;;;;;;;5032607;28;20495;-78
2023/05/27 05:23:30;;;;;;;0.98;0.88;;;;;;;;;;5030786;28;20025;-78
2023/05/27 05:25:58;;;;;;;2.28;1.05;;;;;;;;;;5036503;28;20037;-78
2023/05/27 05:28:24;;;;;;;2.92;1.00;;;;;;;;;;5034767;28;20025;-79
2023/05/27 05:30:50;;;;;;;1.25;1.10;;;;;;;;;;5041163;28;20029;-79
2023/05/27 05:33:16;;;;;;;1.63;0.77;;;;;;;;;;5036575;28;20025;-79
2023/05/27 05:35:42;;;;;;;0.70;0.70;;;;;;;;;;5043724;28;20664;-78
2023/05/27 05:38:08;;;;;;;1.02;0.93;;;;;;;;;;5041877;28;20025;-78
2023/05/27 05:40:34;;;;;;;0.63;0.60;;;;;;;;;;5034694;28;20029;-79
2023/05/27 05:43:00;;;;;;;1.30;0.85;;;;;;;;;;5035831;28;20082;-79
2023/05/27 05:45:26;;;;;;;1.02;0.68;;;;;;;;;;5041353;28;20033;-79
2023/05/27 05:47:52;;;;;;;2.17;0.90;;;;;;;;;;5038737;28;20272;-76
2023/05/27 05:50:18;;;;;;;5.45;1.30;;;;;;;;;;5032628;28;20029;-79
2023/05/27 05:52:44;;;;;;;1.25;0.75;;;;;;;;;;5041641;28;20029;-79
2023/05/27 05:55:10;;;;;;;1.05;0.90;;;;;;;;;;5035415;28;20086;-78
2023/05/27 05:57:36;;;;;;;2.20;0.88;;;;;;;;;;5031040;28;20034;-78
2023/05/27 06:00:02;;;;;;;1.88;0.70;;;;;;;;;;5027667;28;20017;-78
2023/05/27 06:02:28;;;;;;;2.90;1.17;;;;;;;;;;5034760;28;20103;-77
2023/05/27 06:04:54;;;;;;;1.23;0.75;;;;;;;;;;5028600;28;20579;-79
2023/05/27 06:07:20;;;;;;;1.08;1.00;;;;;;;;;;5049961;28;20029;-78
2023/05/27 06:09:46;;;;;;;4.25;1.05;;;;;;;;;;5042283;28;20029;-77
2023/05/27 06:12:12;;;;;;;1.40;0.80;;;;;;;;;;5039442;28;20040;-78
2023/05/27 06:14:38;;;;;;;2.45;0.98;;;;;;;;;;5046841;28;20033;-78
2023/05/27 06:17:04;;;;;;;3.80;0.80;;;;;;;;;;5042428;28;20506;-77
2023/05/27 06:19:30;;;;;;;1.75;1.13;;;;;;;;;;5045376;28;20095;-78
2023/05/27 06:21:57;;;;;;;1.02;0.73;;;;;;;;;;5042748;28;20442;-77
2023/05/27 06:24:23;;;;;;;1.05;0.88;;;;;;;;;;5038435;28;20380;-76
2023/05/27 06:26:49;;;;;;;1.85;0.90;;;;;;;;;;5041157;28;20025;-76
2023/05/27 06:29:16;;;;;;;0.85;0.60;;;;;;;;;;5044195;28;20017;-75
2023/05/27 06:31:42;;;;;;;0.47;0.47;;;;;;;;;;5038373;28;20060;-78
2023/05/27 06:34:08;;;;;;;1.48;0.82;;;;;;;;;;5046900;28;20033;-76
2023/05/27 06:36:35;;;;;;;0.55;0.55;;;;;;;;;;5046874;28;20029;-77
2023/05/27 06:39:01;;;;;;;1.15;0.82;;;;;;;;;;5047445;28;20031;-76
2023/05/27 06:41:27;;;;;;;0.60;0.60;;;;;;;;;;5045606;28;20029;-76
2023/05/27 06:43:53;;;;;;;0.45;0.45;;;;;;;;;;5038612;28;20021;-76
2023/05/27 06:46:19;;;;;;;0.75;0.50;;;;;;;;;;5045136;28;20022;-76
2023/05/27 06:48:45;;;;;;;0.52;0.50;;;;;;;;;;5062755;28;20025;-76
2023/05/27 06:51:13;;;;;;;0.55;0.55;;;;;;;;;;5043884;28;20086;-77
2023/05/27 06:53:40;;;;;;;1.42;0.60;;;;;;;;;;5062222;28;20028;-81
2023/05/27 06:56:06;;;;;;;0.65;0.50;;;;;;;;;;5054580;28;21205;-78
2023/05/27 06:58:32;;;;;;;0.55;0.50;;;;;;;;;;5037897;28;20032;-77
2023/05/27 07:00:58;;;;;;;0.60;0.60;;;;;;;;;;5040585;28;20139;-78
2023/05/27 07:03:24;;;;;;;0.88;0.60;;;;;;;;;;5048549;28;20771;-78
2023/05/27 07:05:50;;;;;;;2.80;0.50;;;;;;;;;;5058175;28;20026;-75
2023/05/27 07:08:16;;;;;;;0.88;0.55;;;;;;;;;;5045964;28;20025;-76
2023/05/27 07:10:42;;;;;;;0.50;0.50;;;;;;;;;;5045210;28;20033;-75
2023/05/27 07:13:13;;;;;;;0.75;0.45;;;;;;;;;;5046001;28;20484;-76
2023/05/27 07:15:39;;;;;;;0.65;0.55;;;;;;;;;;5038576;28;20522;-76
2023/05/27 07:18:05;;;;;;;0.50;0.50;;;;;;;;;;5036717;28;20043;-76
2023/05/27 07:20:32;;;;;;;0.70;0.60;;;;;;;;;;5043509;28;20017;-76
2023/05/27 07:22:58;;;;;;;0.85;0.80;;;;;;;;;;5043999;28;20126;-76
2023/05/27 07:25:25;;;;;;;1.45;0.50;;;;;;;;;;5035377;28;20492;-76
2023/05/27 07:27:51;;;;;;;1.33;0.57;;;;;;;;;;5039834;28;20029;-76
2023/05/27 07:30:18;;;;;;;0.85;0.65;;;;;;;;;;5033040;28;20090;-78
2023/05/27 07:32:43;;;;;;;0.60;0.50;;;;;;;;;;5038336;28;20086;-78
2023/05/27 07:35:09;;;;;;;0.52;0.40;;;;;;;;;;5037014;28;20483;-76
2023/05/27 07:37:35;;;;;;;0.22;0.22;;;;;;;;;;5034862;28;20451;-77
2023/05/27 07:40:01;;;;;;;0.40;0.30;;;;;;;;;;5038770;28;20147;-76
2023/05/27 07:42:27;;;;;;;1.98;0.52;;;;;;;;;;5048488;28;21791;-77
2023/05/27 07:44:55;;;;;;;0.45;0.40;;;;;;;;;;5038446;28;20449;-76
2023/05/27 07:47:21;;;;;;;1.00;0.47;;;;;;;;;;5038771;28;20361;-75
2023/05/27 07:49:47;;;;;;;2.13;0.75;;;;;;;;;;5034252;28;20029;-76
2023/05/27 07:52:13;;;;;;;0.85;0.30;;;;;;;;;;5040472;28;20036;-77
2023/05/27 07:54:39;;;;;;;0.93;0.70;;;;;;;;;;5029840;28;20037;-77
2023/05/27 07:57:06;;;;;;;1.88;1.00;;;;;;;;;;5033487;28;20024;-76
2023/05/27 07:59:35;;;;;;;0.77;0.52;;;;;;;;;;5032636;28;20025;-76
2023/05/27 08:02:01;;;;;;;0.40;0.30;;;;;;;;;;5038323;28;20021;-76
2023/05/27 08:04:27;;;;;;;0.85;0.57;;;;;;;;;;5041343;28;20040;-76
2023/05/27 08:06:53;;;;;;;0.57;0.45;;;;;;;;;;5033395;28;20021;-76
2023/05/27 08:09:19;;;;;;;0.20;0.20;;;;;;;;;;5044264;28;20060;-75
2023/05/27 08:11:45;;;;;;;0.30;0.30;;;;;;;;;;5039917;28;20033;-76
2023/05/27 08:14:12;;;;;;;0.32;0.32;;;;;;;;;;5038861;28;20039;-76
2023/05/27 08:16:38;;;;;;;1.05;0.32;;;;;;;;;;5043573;28;20048;-76
2023/05/27 08:19:04;;;;;;;1.38;0.32;;;;;;;;;;5039023;28;20116;-76
2023/05/27 08:21:31;;;;;;;0.77;0.30;;;;;;;;;;5031521;28;20021;-76
2023/05/27 08:24:06;;;;;;;0.77;0.70;;;;;;;;;;5032464;28;20025;-76
2023/05/27 08:26:32;;;;;;;0.47;0.47;;;;;;;;;;5029746;28;20034;-76
2023/05/27 08:28:58;;;;;;;1.02;0.30;;;;;;;;;;5045772;28;20036;-77
2023/05/27 08:31:24;;;;;;;0.32;0.30;;;;;;;;;;5045183;28;20028;-77
2023/05/27 08:33:50;;;;;;;0.30;0.30;;;;;;;;;;5030880;28;20026;-77
2023/05/27 08:36:18;;;;;;;0.55;0.55;;;;;;;;;;5027584;28;20083;-77
2023/05/27 08:38:44;;;;;;;0.43;0.40;;;;;;;;;;5029261;28;20404;-77
2023/05/27 08:41:10;;;;;;;0.28;0.28;;;;;;;;;;5028590;28;20025;-78
2023/05/27 08:43:36;;;;;;;1.00;0.47;;;;;;;;;;5037096;28;20033;-75
2023/05/27 08:46:02;;;;;;;0.52;0.47;;;;;;;;;;5023562;28;20037;-77
2023/05/27 08:48:28;;;;;;;0.40;0.40;;;;;;;;;;5035965;28;20059;-77
2023/05/27 08:50:54;;;;;;;0.10;0.10;;;;;;;;;;5041956;28;20483;-76
2023/05/27 08:53:21;;;;;;;0.30;0.28;;;;;;;;;;5041923;28;20110;-76
2023/05/27 08:55:48;;;;;;;0.17;0.13;;;;;;;;;;5036038;28;20108;-76
2023/05/27 08:58:15;;;;;;;1.25;0.47;;;;;;;;;;5036120;28;20037;-76
2023/05/27 09:00:42;;;;;;;0.35;0.35;;;;;;;;;;5041853;28;20025;-77
2023/05/27 09:03:09;;;;;;;1.40;0.30;;;;;;;;;;5046326;28;20029;-77
2023/05/27 09:05:36;;;;;;;0.70;0.45;;;;;;;;;;5032611;28;20037;-77
2023/05/27 09:08:02;;;;;;;0.30;0.30;;;;;;;;;;5037684;28;20763;-77
2023/05/27 09:10:40;;;;;;;1.55;0.40;;;;;;;;;;5040517;28;20139;-77
2023/05/27 09:13:06;;;;;;;1.77;0.30;;;;;;;;;;5043440;28;20021;-77
2023/05/27 09:15:33;;;;;;;1.45;0.32;;;;;;;;;;5045136;28;20026;-76
2023/05/27 09:17:59;;;;;;;1.88;0.28;;;;;;;;;;5042856;28;20079;-76
2023/05/27 09:20:26;;;;;;;0.47;0.30;;;;;;;;;;5045447;28;20017;-75
2023/05/27 09:22:57;;;;;;;3.00;0.40;;;;;;;;;;5034256;28;20021;-76
2023/05/27 09:25:24;;;;;;;0.52;0.32;;;;;;;;;;5028926;28;20087;-77
2023/05/27 09:27:50;;;;;;;0.43;0.28;;;;;;;;;;5039603;28;20029;-77
2023/05/27 09:30:19;;;;;;;0.40;0.40;;;;;;;;;;5035045;28;20048;-77
2023/05/27 09:32:46;;;;;;;1.38;0.40;;;;;;;;;;5057099;28;20052;-76
2023/05/27 09:35:12;;;;;;;0.63;0.40;;;;;;;;;;5045066;28;20501;-76
2023/05/27 09:37:38;;;;;;;0.65;0.43;;;;;;;;;;5049511;28;20125;-76
2023/05/27 09:40:08;;;;;;;0.50;0.50;;;;;;;;;;5032815;28;20026;-78
2023/05/27 09:42:44;;;;;;;0.20;0.20;;;;;;;;;;5030137;28;20515;-76
2023/05/27 09:45:14;;;;;;;2.38;0.43;;;;;;;;;;5042639;28;20029;-80
2023/05/27 09:47:41;;;;;;;0.45;0.30;;;;;;;;;;5037788;28;20025;-77
2023/05/27 09:50:11;;;;;;;0.60;0.25;;;;;;;;;;5039082;28;20040;-78
2023/05/27 09:52:39;;;;;;;0.40;0.40;;;;;;;;;;5037639;28;20021;-78
2023/05/27 09:55:06;;;;;;;2.80;0.22;;;;;;;;;;5044119;28;20048;-78
2023/05/27 09:57:33;;;;;;;0.32;0.32;;;;;;;;;;5042522;28;20025;-79
2023/05/27 10:00:00;;;;;;;0.88;0.50;;;;;;;;;;5037802;28;20029;-77
2023/05/27 10:02:27;;;;;;;0.30;0.30;;;;;;;;;;5035773;28;20029;-83
2023/05/27 10:04:53;;;;;;;0.60;0.50;;;;;;;;;;5042568;28;20045;-82
2023/05/27 10:07:22;;;;;;;0.30;0.30;;;;;;;;;;5042588;28;20041;-84
2023/05/27 10:09:49;;;;;;;0.57;0.20;;;;;;;;;;5039083;28;20037;-83
2023/05/27 10:12:15;;;;;;;0.40;0.40;;;;;;;;;;5035331;28;20013;-82
2023/05/27 10:14:46;;;;;;;0.50;0.50;;;;;;;;;;5031377;28;20053;-82
2023/05/27 10:17:18;;;;;;;0.43;0.40;;;;;;;;;;5032445;28;20523;-82
2023/05/27 10:19:59;;;;;;;0.30;0.30;;;;;;;;;;5030382;28;20306;-86
2023/05/27 10:22:25;;;;;;;0.38;0.38;;;;;;;;;;5036767;28;20029;-80
2023/05/27 10:24:53;;;;;;;0.30;0.30;;;;;;;;;;5039773;28;20488;-83
2023/05/27 10:27:21;;;;;;;2.65;0.30;;;;;;;;;;5042952;28;20684;-81
2023/05/27 10:29:57;;;;;;;1.65;0.50;;;;;;;;;;5038439;28;20032;-83
2023/05/27 10:32:23;;;;;;;0.75;0.47;;;;;;;;;;5040382;28;20094;-83
2023/05/27 10:34:49;;;;;;;3.38;0.52;;;;;;;;;;5037765;28;20041;-83
2023/05/27 10:37:21;;;;;;;0.93;0.75;;;;;;;;;;5043107;28;20032;-83
2023/05/27 10:39:54;;;;;;;0.63;0.50;;;;;;;;;;5039814;28;20021;-83
2023/05/27 10:42:24;;;;;;;0.40;0.40;;;;;;;;;;5040361;28;20029;-83
2023/05/27 10:45:02;;;;;;;0.35;0.35;;;;;;;;;;5039524;28;20469;-82
2023/05/27 10:47:35;;;;;;;0.30;0.30;;;;;;;;;;5036128;28;21099;-77
2023/05/27 10:50:09;;;;;;;1.00;0.70;;;;;;;;;;5042436;28;20099;-77
2023/05/27 10:52:38;;;;;;;0.43;0.40;;;;;;;;;;5038423;28;20059;-77
2023/05/27 10:55:06;;;;;;;0.45;0.45;;;;;;;;;;5038849;28;20041;-80
2023/05/27 10:57:32;;;;;;;0.95;0.68;;;;;;;;;;5041354;28;20017;-77
2023/05/27 11:00:01;;;;;;;1.15;0.65;;;;;;;;;;5042444;28;20443;-77
2023/05/27 11:02:31;;;;;;;0.43;0.43;;;;;;;;;;5041190;28;20053;-76
2023/05/27 11:04:57;;;;;;;0.50;0.50;;;;;;;;;;5029732;28;20030;-79
2023/05/27 11:07:24;;;;;;;0.50;0.40;;;;;;;;;;5041749;28;20033;-83
2023/05/27 11:09:52;;;;;;;0.70;0.60;;;;;;;;;;5029332;28;20644;-84
2023/05/27 11:12:19;;;;;;;1.52;0.50;;;;;;;;;;5039869;28;20024;-83
2023/05/27 11:14:53;;;;;;;1.90;0.63;;;;;;;;;;5036610;28;20548;-84
2023/05/27 11:17:20;;;;;;;3.95;0.40;;;;;;;;;;5038345;28;20024;-85
2023/05/27 11:19:46;;;;;;;0.40;0.40;;;;;;;;;;5048124;28;20048;-85
2023/05/27 11:22:13;;;;;;;0.55;0.35;;;;;;;;;;5053778;28;20063;-85
2023/05/27 11:24:42;;;;;;;0.75;0.50;;;;;;;;;;5060077;28;20036;-83
2023/05/27 11:27:10;;;;;;;1.65;0.57;;;;;;;;;;5039696;28;20028;-84
2023/05/27 11:29:36;;;;;;;1.98;0.70;;;;;;;;;;5049674;28;20180;-84
2023/05/27 11:32:02;;;;;;;4.55;0.50;;;;;;;;;;5055340;28;20024;-83
2023/05/27 11:34:28;;;;;;;0.90;0.40;;;;;;;;;;5058398;28;20162;-83
2023/05/27 11:36:55;;;;;;;0.93;0.73;;;;;;;;;;5034032;28;20421;-83
2023/05/27 11:39:22;;;;;;;1.45;0.80;;;;;;;;;;5049213;28;20037;-83
2023/05/27 11:41:49;;;;;;;0.65;0.50;;;;;;;;;;5064476;28;20025;-84
2023/05/27 11:44:15;;;;;;;2.75;0.60;;;;;;;;;;5047617;28;20017;-83
2023/05/27 11:46:42;;;;;;;0.90;0.60;;;;;;;;;;5049412;28;20102;-83
2023/05/27 11:49:10;;;;;;;1.00;0.60;;;;;;;;;;5044833;28;20082;-84
2023/05/27 11:52:00;;;;;;;0.70;0.50;;;;;;;;;;5048908;28;20060;-84
2023/05/27 11:54:27;;;;;;;0.47;0.40;;;;;;;;;;5046496;28;20036;-84
2023/05/27 11:56:54;;;;;;;1.55;0.60;;;;;;;;;;5048804;28;20017;-84
2023/05/27 11:59:23;;;;;;;2.00;0.90;;;;;;;;;;5052449;28;20025;-84
2023/05/27 12:01:53;;;;;;;0.70;0.60;;;;;;;;;;5056546;28;20064;-84
2023/05/27 12:04:19;;;;;;;0.63;0.63;;;;;;;;;;5053705;28;20049;-85
2023/05/27 12:06:46;;;;;;;1.85;0.70;;;;;;;;;;5046907;28;20021;-84
2023/05/27 12:09:15;;;;;;;1.10;0.70;;;;;;;;;;5026979;28;20549;-79
2023/05/27 12:11:41;;;;;;;1.33;0.98;;;;;;;;;;5034197;28;20736;-79
2023/05/27 12:14:07;;;;;;;2.47;0.80;;;;;;;;;;5028243;28;20090;-74
2023/05/27 12:16:33;;;;;;;4.18;1.13;;;;;;;;;;5037498;28;20419;-74
2023/05/27 12:19:00;;;;;;;1.75;0.88;;;;;;;;;;5039918;28;20051;-75
2023/05/27 12:21:26;;;;;;;4.32;0.90;;;;;;;;;;5042127;28;20440;-77
2023/05/27 12:23:52;;;;;;;2.10;0.50;;;;;;;;;;5035403;28;20083;-75
2023/05/27 12:26:20;;;;;;;1.70;0.90;;;;;;;;;;5035238;28;20037;-73
2023/05/27 12:28:46;;;;;;;1.27;0.93;;;;;;;;;;5029105;28;20030;-74
2023/05/27 12:31:12;;;;;;;1.00;0.75;;;;;;;;;;5040312;28;20032;-73
2023/05/27 12:33:38;;;;;;;3.50;0.70;;;;;;;;;;5031711;28;20438;-73
2023/05/27 12:36:07;;;;;;;1.73;1.00;;;;;;;;;;5039826;28;20024;-73
2023/05/27 12:38:33;;;;;;;0.60;0.60;;;;;;;;;;5036950;28;20280;-76
2023/05/27 12:40:59;;;;;;;1.10;0.75;;;;;;;;;;5041643;28;20020;-76
2023/05/27 12:43:25;;;;;;;1.38;0.70;;;;;;;;;;5043550;28;20029;-73
2023/05/27 12:45:52;;;;;;;0.50;0.50;;;;;;;;;;5035885;28;20025;-78
2023/05/27 12:48:18;;;;;;;0.65;0.52;;;;;;;;;;5030362;28;20085;-75
2023/05/27 12:50:44;;;;;;;1.05;0.60;;;;;;;;;;5036553;28;20031;-74
2023/05/27 12:53:10;;;;;;;0.60;0.60;;;;;;;;;;5042745;28;20460;-74
2023/05/27 12:55:36;;;;;;;1.30;0.90;;;;;;;;;;5042117;28;20071;-74
2023/05/27 12:58:03;;;;;;;0.52;0.50;;;;;;;;;;5042986;28;20021;-74
2023/05/27 13:00:29;;;;;;;1.30;0.90;;;;;;;;;;5031593;28;20033;-74
2023/05/27 13:02:55;;;;;;;1.02;0.73;;;;;;;;;;5033886;28;20013;-76
2023/05/27 13:05:21;;;;;;;1.33;0.93;;;;;;;;;;5040170;28;20049;-76
2023/05/27 13:08:01;;;;;;;1.05;0.63;;;;;;;;;;5040259;28;20114;-76
2023/05/27 13:10:27;;;;;;;1.50;0.85;;;;;;;;;;5033903;28;20449;-77
2023/05/27 13:12:53;;;;;;;0.50;0.50;;;;;;;;;;5031301;28;20036;-75
2023/05/27 13:15:20;;;;;;;0.52;0.50;;;;;;;;;;5045090;28;20032;-76
2023/05/27 13:17:47;;;;;;;1.40;0.70;;;;;;;;;;5049012;28;20029;-76
2023/05/27 13:20:13;;;;;;;0.55;0.55;;;;;;;;;;5036680;28;20025;-75
2023/05/27 13:22:40;;;;;;;1.50;0.70;;;;;;;;;;5037757;28;20111;-76
2023/05/27 13:25:06;;;;;;;1.00;0.60;;;;;;;;;;5040625;28;20032;-75
2023/05/27 13:27:33;;;;;;;1.27;0.70;;;;;;;;;;5040523;28;20136;-77
2023/05/27 13:29:59;;;;;;;0.90;0.60;;;;;;;;;;5030892;28;20029;-76
2023/05/27 13:32:25;;;;;;;1.33;0.70;;;;;;;;;;5032206;28;20745;-76
2023/05/27 13:34:51;;;;;;;1.33;0.43;;;;;;;;;;5035410;28;20092;-74
2023/05/27 13:37:17;;;;;;;0.32;0.32;;;;;;;;;;5041589;28;20488;-77
2023/05/27 13:39:43;;;;;;;1.92;0.90;;;;;;;;;;5040051;28;20029;-76
2023/05/27 13:42:12;;;;;;;0.55;0.30;;;;;;;;;;5035379;28;20506;-73
2023/05/27 13:44:38;;;;;;;0.65;0.55;;;;;;;;;;5032952;28;20071;-76
2023/05/27 13:47:05;;;;;;;1.30;0.50;;;;;;;;;;5028721;28;20108;-76
2023/05/27 13:49:31;;;;;;;0.50;0.45;;;;;;;;;;5032610;28;20021;-76
2023/05/27 13:51:57;;;;;;;0.75;0.60;;;;;;;;;;5034036;28;20092;-76
2023/05/27 13:54:23;;;;;;;2.30;1.15;;;;;;;;;;5030565;28;20030;-74
2023/05/27 13:56:50;;;;;;;3.60;2.15;;;;;;;;;;5030770;28;20533;-74
2023/05/27 13:59:16;;;;;;;5.85;2.95;;;;;;;;;;5029216;28;20889;-73
2023/05/27 14:01:42;;;;;;;13.25;6.78;;;;;;;;;;5027922;28;20021;-72
2023/05/27 14:04:08;;;;;;;21.95;10.57;;;;;;;;;;5023726;28;20518;-75
2023/05/27 14:06:35;;;;;;;17.35;9.75;;;;;;;;;;5028770;28;20029;-77
2023/05/27 14:09:01;;;;;;;14.25;6.25;;;;;;;;;;5037410;28;20246;-75
2023/05/27 14:11:27;;;;;;;9.18;5.15;;;;;;;;;;5019141;28;20061;-83
2023/05/27 14:13:56;;;;;;;8.48;4.45;;;;;;;;;;5022104;28;20396;-76
2023/05/27 14:16:23;;;;;;;5.00;3.45;;;;;;;;;;5018704;28;20030;-74
2023/05/27 14:18:49;;;;;;;5.03;2.70;;;;;;;;;;5022338;28;20083;-73
2023/05/27 14:21:16;;;;;;;6.50;3.60;;;;;;;;;;5016835;28;20024;-73
2023/05/27 14:23:42;;;;;;;2.65;1.60;;;;;;;;;;5018112;28;20029;-73
2023/05/27 14:26:08;;;;;;;2.75;2.03;;;;;;;;;;5030789;28;20030;-74
2023/05/27 14:28:34;;;;;;;5.22;2.25;;;;;;;;;;5018235;28;20033;-75
2023/05/27 14:31:00;;;;;;;7.20;3.78;;;;;;;;;;5033291;28;20661;-75
2023/05/27 14:33:28;;;;;;;31.10;17.63;;;;;;;;;;5032015;28;20033;-75
2023/05/27 14:35:56;;;;;;;56.85;26.88;;;;;;;;;;5020880;28;20025;-77
2023/05/27 14:38:22;;;;;;;57.50;25.00;;;;;;;;;;5022010;28;20047;-77
2023/05/27 14:40:51;;;;;;;56.63;27.00;;;;;;;;;;5014831;28;20029;-77